createdAt,value
2018-09-18T09:08:26.983Z,13.27
2018-09-18T09:10:55.528Z,13.13
2018-09-18T09:13:24.019Z,12.30
2018-09-18T09:15:52.534Z,11.80
2018-09-18T09:18:21.135Z,12.10
2018-09-18T09:20:49.653Z,11.70
2018-09-18T09:23:18.219Z,11.90
2018-09-18T09:25:46.772Z,11.73
2018-09-18T09:28:15.303Z,12.00
2018-09-18T09:30:44.097Z,11.80
2018-09-18T09:33:12.729Z,12.00
2018-09-18T09:35:41.292Z,12.13
2018-09-18T09:38:09.742Z,10.70
2018-09-18T09:40:39.396Z,11.50
2018-09-18T09:43:07.953Z,11.50
2018-09-18T09:45:36.482Z,12.13
2018-09-18T09:48:05.345Z,11.17
2018-09-18T09:50:33.887Z,11.27
2018-09-18T09:53:03.445Z,13.70
2018-09-18T09:55:31.991Z,13.17
2018-09-18T09:58:00.453Z,10.73
2018-09-18T10:00:34.219Z,10.83
2018-09-18T10:03:03.096Z,11.20
2018-09-18T10:05:31.681Z,11.30
2018-09-18T10:08:00.217Z,10.93
2018-09-18T10:10:28.790Z,10.20
2018-09-18T10:12:57.217Z,10.60
2018-09-18T10:15:25.762Z,9.83
2018-09-18T10:17:54.591Z,9.60
2018-09-18T10:20:22.937Z,10.53
2018-09-18T10:22:51.411Z,10.43
2018-09-18T10:25:19.957Z,9.27
2018-09-18T10:27:48.493Z,9.23
2018-09-18T10:30:16.989Z,8.00
2018-09-18T10:32:45.595Z,8.53
2018-09-18T10:35:13.958Z,9.00
2018-09-18T10:37:42.398Z,8.73
2018-09-18T10:40:10.988Z,8.50
2018-09-18T10:42:39.489Z,8.63
2018-09-18T10:45:08.924Z,8.53
2018-09-18T10:47:37.931Z,8.37
2018-09-18T10:50:07.018Z,8.03
2018-09-18T10:52:35.625Z,8.87
2018-09-18T10:55:07.202Z,7.57
2018-09-18T10:57:35.689Z,8.23
2018-09-18T11:00:04.285Z,7.87
2018-09-18T11:02:32.818Z,7.80
2018-09-18T11:05:01.235Z,8.40
2018-09-18T11:07:29.685Z,7.70
2018-09-18T11:09:58.249Z,7.93
2018-09-18T11:12:26.801Z,7.90
2018-09-18T11:14:55.345Z,8.00
2018-09-18T11:17:23.767Z,7.57
2018-09-18T11:19:52.283Z,8.23
2018-09-18T11:22:20.814Z,8.00
2018-09-18T11:24:49.228Z,8.17
2018-09-18T11:27:17.619Z,7.23
2018-09-18T11:29:46.109Z,7.60
2018-09-18T11:32:14.555Z,7.27
2018-09-18T11:34:43.060Z,7.80
2018-09-18T11:37:11.474Z,7.00
2018-09-18T11:39:39.935Z,7.77
2018-09-18T11:42:08.361Z,7.80
2018-09-18T11:44:36.865Z,7.90
2018-09-18T11:47:05.349Z,7.30
2018-09-18T11:49:33.885Z,8.03
2018-09-18T11:52:02.431Z,8.07
2018-09-18T11:54:31.006Z,8.10
2018-09-18T11:56:59.634Z,7.90
2018-09-18T11:59:28.054Z,7.37
2018-09-18T12:01:56.619Z,7.10
2018-09-18T12:04:25.127Z,7.10
2018-09-18T12:06:53.538Z,7.93
2018-09-18T12:09:21.969Z,7.37
2018-09-18T12:11:50.757Z,8.20
2018-09-18T12:14:19.276Z,7.17
2018-09-18T12:16:47.768Z,7.50
2018-09-18T12:19:16.299Z,8.07
2018-09-18T12:21:44.729Z,11.77
2018-09-18T12:24:13.265Z,7.27
2018-09-18T12:26:42.806Z,7.90
2018-09-18T12:29:11.229Z,7.27
2018-09-18T12:31:39.641Z,8.60
2018-09-18T12:34:08.233Z,7.83
2018-09-18T12:36:36.645Z,7.70
2018-09-18T12:39:07.746Z,7.20
2018-09-18T12:41:36.282Z,7.50
2018-09-18T12:44:04.982Z,7.10
2018-09-18T12:46:33.527Z,7.27
2018-09-18T12:49:01.974Z,8.00
2018-09-18T12:51:30.435Z,7.43
2018-09-18T12:53:58.955Z,7.43
2018-09-18T12:56:27.498Z,8.60
2018-09-18T12:58:56.056Z,7.57
2018-09-18T13:01:24.457Z,7.90
2018-09-18T13:03:52.928Z,7.70
2018-09-18T13:06:21.479Z,7.10
2018-09-18T13:08:49.873Z,7.30
2018-09-18T13:11:18.312Z,7.57
2018-09-18T13:13:46.804Z,7.20
2018-09-18T13:16:15.310Z,7.30
2018-09-18T13:18:43.838Z,7.20
2018-09-18T13:21:12.437Z,6.60
2018-09-18T13:23:40.929Z,7.40
2018-09-18T13:26:09.683Z,6.10
2018-09-18T13:28:38.114Z,6.97
2018-09-18T13:31:06.579Z,6.33
2018-09-18T13:33:35.031Z,6.70
2018-09-18T13:36:03.493Z,6.63
2018-09-18T13:38:32.010Z,6.90
2018-09-18T13:41:00.571Z,6.20
2018-09-18T13:43:28.949Z,6.93
2018-09-18T13:45:57.561Z,6.40
2018-09-18T13:48:26.018Z,6.07
2018-09-18T13:50:54.457Z,6.67
2018-09-18T13:53:22.942Z,6.80
2018-09-18T13:55:51.498Z,7.40
2018-09-18T13:58:19.989Z,6.77
2018-09-18T14:00:48.521Z,7.00
2018-09-18T14:03:17.047Z,6.80
2018-09-18T14:05:45.522Z,6.67
2018-09-18T14:08:14.129Z,6.30
2018-09-18T14:10:42.561Z,6.60
2018-09-18T14:13:11.070Z,6.70
2018-09-18T14:15:39.617Z,6.27
2018-09-18T14:18:08.186Z,6.30
2018-09-18T14:20:36.686Z,6.80
2018-09-18T14:23:05.225Z,21.03
2018-09-18T14:25:33.776Z,6.90
2018-09-18T14:28:02.204Z,5.80
2018-09-18T14:30:30.758Z,6.10
2018-09-18T14:32:59.322Z,5.90
2018-09-18T14:35:27.944Z,5.87
2018-09-18T14:37:56.542Z,5.63
2018-09-18T14:40:24.995Z,5.27
2018-09-18T14:42:53.517Z,5.70
2018-09-18T14:45:22.057Z,5.60
2018-09-18T14:47:50.557Z,5.70
2018-09-18T14:50:18.957Z,6.13
2018-09-18T14:52:47.386Z,4.83
2018-09-18T14:55:15.814Z,6.17
2018-09-18T14:57:44.224Z,5.20
2018-09-18T15:00:12.779Z,6.13
2018-09-18T15:02:41.116Z,5.60
2018-09-18T15:05:09.580Z,5.33
2018-09-18T15:07:38.053Z,5.40
2018-09-18T15:10:06.685Z,5.70
2018-09-18T15:12:35.136Z,4.93
2018-09-18T15:15:03.610Z,5.20
2018-09-18T15:17:32.053Z,5.40
2018-09-18T15:20:00.574Z,5.50
2018-09-18T15:22:29.002Z,5.10
2018-09-18T15:24:57.469Z,6.00
2018-09-18T15:27:25.976Z,5.37
2018-09-18T15:29:54.369Z,5.67
2018-09-18T15:32:22.880Z,5.40
2018-09-18T15:34:51.322Z,6.50
2018-09-18T15:37:19.839Z,6.73
2018-09-18T15:39:48.386Z,5.50
2018-09-18T15:42:16.754Z,5.73
2018-09-18T15:44:45.211Z,5.87
2018-09-18T15:47:13.720Z,5.87
2018-09-18T15:49:42.274Z,6.70
2018-09-18T15:52:10.840Z,5.80
2018-09-18T15:54:39.290Z,6.47
2018-09-18T15:57:07.781Z,6.43
2018-09-18T15:59:36.269Z,6.43
2018-09-18T16:02:04.781Z,6.40
2018-09-18T16:04:33.345Z,6.73
2018-09-18T16:07:01.776Z,6.07
2018-09-18T16:09:30.344Z,6.40
2018-09-18T16:11:58.842Z,7.20
2018-09-18T16:14:27.393Z,7.23
2018-09-18T16:16:55.867Z,6.90
2018-09-18T16:19:24.394Z,6.60
2018-09-18T16:21:53.255Z,6.80
2018-09-18T16:24:21.765Z,7.20
2018-09-18T16:26:50.416Z,6.80
2018-09-18T16:29:18.998Z,5.97
2018-09-18T16:31:47.518Z,6.53
2018-09-18T16:34:16.033Z,6.80
2018-09-18T16:36:44.560Z,6.43
2018-09-18T16:39:13.093Z,6.47
2018-09-18T16:41:41.537Z,7.20
2018-09-18T16:44:10.064Z,7.27
2018-09-18T16:46:38.567Z,7.67
2018-09-18T16:49:07.155Z,7.40
2018-09-18T16:51:35.665Z,6.30
2018-09-18T16:54:04.182Z,8.13
2018-09-18T16:56:32.653Z,6.83
2018-09-18T16:59:01.123Z,6.53
2018-09-18T17:01:29.612Z,6.20
2018-09-18T17:03:58.046Z,6.73
2018-09-18T17:06:26.525Z,6.27
2018-09-18T17:08:54.987Z,7.67
2018-09-18T17:11:23.937Z,6.30
2018-09-18T17:13:52.587Z,6.80
2018-09-18T17:16:21.166Z,7.30
2018-09-18T17:18:49.597Z,6.40
2018-09-18T17:21:18.057Z,6.43
2018-09-18T17:23:46.538Z,6.40
2018-09-18T17:26:14.995Z,6.63
2018-09-18T17:28:43.643Z,7.20
2018-09-18T17:31:12.042Z,7.30
2018-09-18T17:33:40.613Z,6.80
2018-09-18T17:36:09.064Z,6.00
2018-09-18T17:38:37.604Z,7.00
2018-09-18T17:41:07.785Z,6.93
2018-09-18T17:43:37.332Z,5.47
2018-09-18T17:46:06.854Z,6.17
2018-09-18T17:48:36.462Z,6.33
2018-09-18T17:51:05.789Z,6.20
2018-09-18T17:53:34.309Z,7.03
2018-09-18T17:56:02.797Z,17.80
2018-09-18T17:58:43.772Z,6.83
2018-09-18T18:01:15.175Z,6.50
2018-09-18T18:03:43.902Z,6.10
2018-09-18T18:06:18.836Z,6.60
2018-09-18T18:08:48.756Z,6.63
2018-09-18T18:11:17.232Z,6.80
2018-09-18T18:13:45.710Z,6.23
2018-09-18T18:16:14.137Z,7.20
2018-09-18T18:18:42.634Z,6.70
2018-09-18T18:21:11.061Z,7.10
2018-09-18T18:23:39.627Z,7.47
2018-09-18T18:26:08.142Z,6.00
2018-09-18T18:28:36.573Z,7.20
2018-09-18T18:31:05.066Z,7.97
2018-09-18T18:33:33.509Z,6.30
2018-09-18T18:36:01.989Z,7.67
2018-09-18T18:38:30.503Z,6.50
2018-09-18T18:40:59.124Z,7.80
2018-09-18T18:43:27.613Z,7.27
2018-09-18T18:45:56.207Z,6.50
2018-09-18T18:48:24.828Z,6.50
2018-09-18T18:50:53.525Z,6.97
2018-09-18T18:53:22.256Z,6.67
2018-09-18T18:55:51.184Z,6.90
2018-09-18T18:58:19.787Z,6.70
2018-09-18T19:00:48.396Z,6.33
2018-09-18T19:03:17.007Z,6.80
2018-09-18T19:05:45.438Z,7.00
2018-09-18T19:08:14.067Z,6.90
2018-09-18T19:10:42.569Z,6.60
2018-09-18T19:13:10.992Z,7.23
2018-09-18T19:15:39.477Z,7.57
2018-09-18T19:18:07.989Z,7.00
2018-09-18T19:20:36.453Z,6.83
2018-09-18T19:23:04.981Z,6.90
2018-09-18T19:25:34.517Z,7.10
2018-09-18T19:28:03.146Z,7.13
2018-09-18T19:30:31.679Z,7.60
2018-09-18T19:33:00.198Z,6.30
2018-09-18T19:35:28.712Z,6.80
2018-09-18T19:37:57.227Z,8.07
2018-09-18T19:40:25.693Z,7.23
2018-09-18T19:42:54.449Z,7.70
2018-09-18T19:45:22.885Z,7.03
2018-09-18T19:47:51.346Z,7.30
2018-09-18T19:50:19.875Z,7.50
2018-09-18T19:52:48.721Z,8.03
2018-09-18T19:55:18.329Z,8.20
2018-09-18T19:57:46.848Z,7.17
2018-09-18T20:00:15.408Z,7.37
2018-09-18T20:02:43.876Z,6.80
2018-09-18T20:05:12.758Z,7.17
2018-09-18T20:07:41.247Z,7.70
2018-09-18T20:10:09.724Z,7.90
2018-09-18T20:12:38.179Z,8.20
2018-09-18T20:15:06.785Z,7.93
2018-09-18T20:17:35.306Z,7.47
2018-09-18T20:20:03.841Z,7.60
2018-09-18T20:22:33.376Z,7.57
2018-09-18T20:25:01.894Z,8.03
2018-09-18T20:27:30.445Z,7.97
2018-09-18T20:29:58.906Z,7.40
2018-09-18T20:32:27.417Z,7.30
2018-09-18T20:34:55.901Z,7.87
2018-09-18T20:37:24.412Z,7.47
2018-09-18T20:39:52.930Z,7.93
2018-09-18T20:42:21.479Z,7.83
2018-09-18T20:44:49.997Z,7.87
2018-09-18T20:47:19.497Z,7.37
2018-09-18T20:49:48.011Z,8.03
2018-09-18T20:52:16.519Z,7.37
2018-09-18T20:54:45.033Z,8.07
2018-09-18T20:57:14.558Z,7.87
2018-09-18T20:59:43.065Z,7.53
2018-09-18T21:02:11.614Z,8.07
2018-09-18T21:04:40.157Z,8.27
2018-09-18T21:07:08.790Z,8.30
2018-09-18T21:09:37.269Z,8.10
2018-09-18T21:12:05.741Z,8.03
2018-09-18T21:14:34.257Z,7.57
2018-09-18T21:17:02.756Z,8.07
2018-09-18T21:19:31.185Z,8.50
2018-09-18T21:21:59.713Z,8.07
2018-09-18T21:24:28.323Z,8.00
2018-09-18T21:26:56.889Z,8.17
2018-09-18T21:29:26.389Z,8.00
2018-09-18T21:31:54.987Z,7.33
2018-09-18T21:34:23.518Z,7.83
2018-09-18T21:36:52.083Z,8.03
2018-09-18T21:39:20.633Z,8.20
2018-09-18T21:41:49.168Z,7.87
2018-09-18T21:44:17.641Z,7.47
2018-09-18T21:46:46.149Z,8.20
2018-09-18T21:49:14.632Z,8.43
2018-09-18T21:51:43.132Z,8.10
2018-09-18T21:54:11.612Z,7.83
2018-09-18T21:56:40.165Z,8.40
2018-09-18T21:59:08.774Z,9.03
2018-09-18T22:01:52.537Z,7.20
2018-09-18T22:04:21.265Z,8.13
2018-09-18T22:06:51.019Z,8.50
2018-09-18T22:09:19.455Z,9.00
2018-09-18T22:11:48.005Z,7.90
2018-09-18T22:14:16.519Z,8.27
2018-09-18T22:16:45.073Z,8.77
2018-09-18T22:19:13.585Z,9.27
2018-09-18T22:21:42.111Z,8.93
2018-09-18T22:24:10.553Z,8.83
2018-09-18T22:26:39.062Z,8.90
2018-09-18T22:29:07.559Z,8.53
2018-09-18T22:31:36.043Z,9.77
2018-09-18T22:34:04.481Z,9.27
2018-09-18T22:36:33.007Z,9.03
2018-09-18T22:39:01.538Z,9.20
2018-09-18T22:41:30.021Z,8.93
2018-09-18T22:43:58.541Z,9.20
2018-09-18T22:46:26.989Z,9.20
2018-09-18T22:48:55.512Z,11.80
2018-09-18T22:51:24.049Z,10.17
2018-09-18T22:53:52.574Z,11.70
2018-09-18T22:56:21.076Z,10.50
2018-09-18T22:58:49.592Z,10.60
2018-09-18T23:01:18.093Z,10.87
2018-09-18T23:03:47.648Z,9.97
2018-09-18T23:06:16.206Z,10.00
2018-09-18T23:08:45.270Z,10.47
2018-09-18T23:11:13.901Z,10.60
2018-09-18T23:13:42.487Z,9.00
2018-09-18T23:16:11.126Z,9.90
2018-09-18T23:18:39.653Z,9.73
2018-09-18T23:21:08.093Z,10.03
2018-09-18T23:23:36.604Z,9.83
2018-09-18T23:26:05.316Z,9.83
2018-09-18T23:28:34.757Z,9.87
2018-09-18T23:31:03.302Z,10.40
2018-09-18T23:33:31.817Z,9.13
2018-09-18T23:36:00.340Z,10.83
2018-09-18T23:38:28.789Z,10.23
2018-09-18T23:40:57.328Z,11.23
2018-09-18T23:43:25.849Z,11.30
2018-09-18T23:45:54.393Z,12.50
2018-09-18T23:48:23.035Z,12.03
2018-09-18T23:50:51.607Z,11.93
2018-09-18T23:53:20.139Z,12.27
2018-09-18T23:55:48.689Z,11.53
2018-09-18T23:58:17.149Z,11.40
